sensor_id;sensor_type;location;lat;lon;timestamp;pressure;altitude;pressure_sealevel;temperature;humidity
53900;BME280;40509;32.858;-116.858;2023-08-20T00:00:20;97441.34;;;27.78;42.81
53900;BME280;40509;32.858;-116.858;2023-08-20T00:02:49;97428.50;;;27.75;42.91
53900;BME280;40509;32.858;-116.858;2023-08-20T00:05:18;97429.53;;;27.74;43.09
53900;BME280;40509;32.858;-116.858;2023-08-20T00:07:45;97429.13;;;27.77;42.41
53900;BME280;40509;32.858;-116.858;2023-08-20T00:10:12;97414.44;;;27.81;42.54
53900;BME280;40509;32.858;-116.858;2023-08-20T00:12:38;97414.03;;;27.71;43.45
53900;BME280;40509;32.858;-116.858;2023-08-20T00:15:06;97411.59;;;27.76;43.08
53900;BME280;40509;32.858;-116.858;2023-08-20T00:17:33;97406.69;;;27.80;43.10
53900;BME280;40509;32.858;-116.858;2023-08-20T00:20:01;97413.22;;;27.84;43.19
53900;BME280;40509;32.858;-116.858;2023-08-20T00:22:30;97408.94;;;27.76;43.92
53900;BME280;40509;32.858;-116.858;2023-08-20T00:24:58;97398.13;;;27.77;43.91
53900;BME280;40509;32.858;-116.858;2023-08-20T00:27:25;97392.38;;;27.81;43.52
53900;BME280;40509;32.858;-116.858;2023-08-20T00:29:52;97393.22;;;27.81;43.58
53900;BME280;40509;32.858;-116.858;2023-08-20T00:32:19;97384.84;;;27.77;44.25
53900;BME280;40509;32.858;-116.858;2023-08-20T00:34:46;97389.53;;;27.82;43.77
53900;BME280;40509;32.858;-116.858;2023-08-20T00:37:13;97389.53;;;27.82;44.23
53900;BME280;40509;32.858;-116.858;2023-08-20T00:39:41;97386.28;;;27.80;43.92
53900;BME280;40509;32.858;-116.858;2023-08-20T00:42:08;97388.94;;;27.80;43.96
53900;BME280;40509;32.858;-116.858;2023-08-20T00:44:35;97379.97;;;27.81;44.02
53900;BME280;40509;32.858;-116.858;2023-08-20T00:47:02;97377.69;;;27.85;44.33
53900;BME280;40509;32.858;-116.858;2023-08-20T00:49:31;97367.91;;;27.85;43.92
53900;BME280;40509;32.858;-116.858;2023-08-20T00:51:58;97363.22;;;27.87;44.02
53900;BME280;40509;32.858;-116.858;2023-08-20T00:54:25;97364.25;;;27.86;44.43
53900;BME280;40509;32.858;-116.858;2023-08-20T00:56:52;97362.19;;;27.82;44.37
53900;BME280;40509;32.858;-116.858;2023-08-20T00:59:20;97361.19;;;27.83;44.59
53900;BME280;40509;32.858;-116.858;2023-08-20T01:01:47;97359.34;;;27.83;44.27
53900;BME280;40509;32.858;-116.858;2023-08-20T01:04:13;97354.03;;;27.83;44.37
53900;BME280;40509;32.858;-116.858;2023-08-20T01:09:14;97356.69;;;27.83;44.72
53900;BME280;40509;32.858;-116.858;2023-08-20T01:11:49;97364.84;;;27.82;44.55
53900;BME280;40509;32.858;-116.858;2023-08-20T01:14:19;97358.13;;;27.79;44.62
53900;BME280;40509;32.858;-116.858;2023-08-20T01:16:46;97354.88;;;27.84;44.45
53900;BME280;40509;32.858;-116.858;2023-08-20T01:19:19;97342.00;;;27.87;44.37
53900;BME280;40509;32.858;-116.858;2023-08-20T01:27:03;97343.63;;;27.88;44.58
53900;BME280;40509;32.858;-116.858;2023-08-20T01:29:38;97343.63;;;27.88;44.57
53900;BME280;40509;32.858;-116.858;2023-08-20T01:32:06;97351.16;;;27.85;44.63
53900;BME280;40509;32.858;-116.858;2023-08-20T01:34:34;97356.28;;;27.86;44.67
53900;BME280;40509;32.858;-116.858;2023-08-20T01:37:01;97349.16;;;27.87;44.60
53900;BME280;40509;32.858;-116.858;2023-08-20T01:39:28;97354.25;;;27.88;45.08
53900;BME280;40509;32.858;-116.858;2023-08-20T01:41:56;97356.69;;;27.83;44.73
53900;BME280;40509;32.858;-116.858;2023-08-20T01:44:26;97350.38;;;27.84;44.78
53900;BME280;40509;32.858;-116.858;2023-08-20T01:46:53;97357.31;;;27.85;45.25
53900;BME280;40509;32.858;-116.858;2023-08-20T01:49:21;97348.34;;;27.86;44.73
53900;BME280;40509;32.858;-116.858;2023-08-20T01:51:48;97348.34;;;27.86;44.77
53900;BME280;40509;32.858;-116.858;2023-08-20T01:54:15;97348.94;;;27.88;44.82
53900;BME280;40509;32.858;-116.858;2023-08-20T01:56:41;97352.38;;;27.89;44.69
53900;BME280;40509;32.858;-116.858;2023-08-20T01:59:08;97343.84;;;27.87;45.20
53900;BME280;40509;32.858;-116.858;2023-08-20T02:01:35;97346.69;;;27.92;44.74
53900;BME280;40509;32.858;-116.858;2023-08-20T02:04:02;97345.47;;;27.88;45.09
53900;BME280;40509;32.858;-116.858;2023-08-20T02:06:29;97345.47;;;27.88;45.19
53900;BME280;40509;32.858;-116.858;2023-08-20T02:08:56;97345.47;;;27.88;45.20
53900;BME280;40509;32.858;-116.858;2023-08-20T02:11:23;97343.63;;;27.88;45.28
53900;BME280;40509;32.858;-116.858;2023-08-20T02:13:50;97339.34;;;27.87;44.88
53900;BME280;40509;32.858;-116.858;2023-08-20T02:16:17;97342.00;;;27.87;44.78
53900;BME280;40509;32.858;-116.858;2023-08-20T02:18:44;97344.66;;;28.01;44.50
53900;BME280;40509;32.858;-116.858;2023-08-20T02:21:11;97354.03;;;27.83;45.03
53900;BME280;40509;32.858;-116.858;2023-08-20T02:23:38;97349.16;;;27.87;44.91
53900;BME280;40509;32.858;-116.858;2023-08-20T02:26:06;97346.06;;;27.90;44.75
53900;BME280;40509;32.858;-116.858;2023-08-20T02:28:34;97350.78;;;27.95;44.67
53900;BME280;40509;32.858;-116.858;2023-08-20T02:31:03;97350.78;;;27.88;45.00
53900;BME280;40509;32.858;-116.858;2023-08-20T02:33:30;97353.66;;;27.86;44.98
53900;BME280;40509;32.858;-116.858;2023-08-20T02:36:01;97351.16;;;27.91;44.94
53900;BME280;40509;32.858;-116.858;2023-08-20T02:38:29;97356.09;;;27.88;44.98
53900;BME280;40509;32.858;-116.858;2023-08-20T02:40:57;97346.06;;;27.90;45.14
53900;BME280;40509;32.858;-116.858;2023-08-20T02:43:23;97346.91;;;27.90;45.42
53900;BME280;40509;32.858;-116.858;2023-08-20T02:45:51;97348.13;;;27.95;44.92
53900;BME280;40509;32.858;-116.858;2023-08-20T02:48:18;97347.72;;;27.91;44.88
53900;BME280;40509;32.858;-116.858;2023-08-20T02:50:45;97348.34;;;27.86;45.29
53900;BME280;40509;32.858;-116.858;2023-08-20T02:53:12;97343.41;;;27.90;45.33
53900;BME280;40509;32.858;-116.858;2023-08-20T02:55:39;97347.91;;;27.89;44.94
53900;BME280;40509;32.858;-116.858;2023-08-20T02:58:06;97355.44;;;27.92;44.93
53900;BME280;40509;32.858;-116.858;2023-08-20T03:00:34;97361.19;;;27.89;45.04
53900;BME280;40509;32.858;-116.858;2023-08-20T03:03:02;97361.19;;;27.89;44.95
53900;BME280;40509;32.858;-116.858;2023-08-20T03:05:32;97359.13;;;27.91;45.32
53900;BME280;40509;32.858;-116.858;2023-08-20T03:07:59;97365.06;;;27.93;45.17
53900;BME280;40509;32.858;-116.858;2023-08-20T03:10:27;97366.06;;;27.92;45.16
53900;BME280;40509;32.858;-116.858;2023-08-20T03:12:54;97371.38;;;27.92;44.95
53900;BME280;40509;32.858;-116.858;2023-08-20T03:15:21;97365.25;;;27.92;45.18
53900;BME280;40509;32.858;-116.858;2023-08-20T03:17:48;97370.78;;;27.90;45.22
53900;BME280;40509;32.858;-116.858;2023-08-20T03:20:15;97365.06;;;27.87;45.03
53900;BME280;40509;32.858;-116.858;2023-08-20T03:22:42;97376.47;;;27.87;45.08
53900;BME280;40509;32.858;-116.858;2023-08-20T03:25:09;97372.59;;;27.90;45.09
53900;BME280;40509;32.858;-116.858;2023-08-20T03:27:37;97376.88;;;27.98;44.84
53900;BME280;40509;32.858;-116.858;2023-08-20T03:30:04;97370.97;;;27.89;45.25
53900;BME280;40509;32.858;-116.858;2023-08-20T03:32:32;97365.88;;;27.87;45.45
53900;BME280;40509;32.858;-116.858;2023-08-20T03:34:59;97365.47;;;27.90;45.01
53900;BME280;40509;32.858;-116.858;2023-08-20T03:37:26;97363.84;;;27.89;45.05
53900;BME280;40509;32.858;-116.858;2023-08-20T03:39:53;97362.63;;;27.85;45.58
53900;BME280;40509;32.858;-116.858;2023-08-20T03:42:20;97357.31;;;27.85;45.31
53900;BME280;40509;32.858;-116.858;2023-08-20T03:44:48;97361.38;;;27.95;44.98
53900;BME280;40509;32.858;-116.858;2023-08-20T03:47:16;97368.13;;;27.90;45.17
53900;BME280;40509;32.858;-116.858;2023-08-20T03:49:46;97366.69;;;27.95;45.38
53900;BME280;40509;32.858;-116.858;2023-08-20T03:52:16;97370.78;;;27.84;45.21
53900;BME280;40509;32.858;-116.858;2023-08-20T03:54:43;97356.25;;;27.93;45.33
53900;BME280;40509;32.858;-116.858;2023-08-20T03:57:10;97366.25;;;27.98;45.13
53900;BME280;40509;32.858;-116.858;2023-08-20T03:59:37;97361.97;;;27.90;45.05
53900;BME280;40509;32.858;-116.858;2023-08-20T04:02:05;97360.56;;;27.94;45.07
53900;BME280;40509;32.858;-116.858;2023-08-20T04:04:32;97361.41;;;27.88;45.76
53900;BME280;40509;32.858;-116.858;2023-08-20T04:07:00;97366.69;;;27.95;45.28
53900;BME280;40509;32.858;-116.858;2023-08-20T04:09:26;97369.34;;;27.95;45.08
53900;BME280;40509;32.858;-116.858;2023-08-20T04:11:53;97378.91;;;27.96;45.22
53900;BME280;40509;32.858;-116.858;2023-08-20T04:14:20;97365.06;;;27.93;45.05
53900;BME280;40509;32.858;-116.858;2023-08-20T04:16:47;97376.47;;;27.87;45.71
53900;BME280;40509;32.858;-116.858;2023-08-20T04:19:14;97366.47;;;27.89;45.12
53900;BME280;40509;32.858;-116.858;2023-08-20T04:21:41;97372.00;;;27.81;45.41
53900;BME280;40509;32.858;-116.858;2023-08-20T04:24:08;97378.53;;;27.92;45.06
53900;BME280;40509;32.858;-116.858;2023-08-20T04:26:36;97376.88;;;27.91;45.13
53900;BME280;40509;32.858;-116.858;2023-08-20T04:29:03;97382.19;;;27.84;45.33
53900;BME280;40509;32.858;-116.858;2023-08-20T04:31:31;97383.19;;;27.90;45.17
53900;BME280;40509;32.858;-116.858;2023-08-20T04:34:03;97383.63;;;27.87;45.23
53900;BME280;40509;32.858;-116.858;2023-08-20T04:36:51;97379.75;;;27.83;45.72
53900;BME280;40509;32.858;-116.858;2023-08-20T04:39:18;97376.09;;;27.90;45.42
53900;BME280;40509;32.858;-116.858;2023-08-20T04:41:49;97371.16;;;27.87;45.35
53900;BME280;40509;32.858;-116.858;2023-08-20T04:44:18;97364.25;;;27.86;45.26
53900;BME280;40509;32.858;-116.858;2023-08-20T04:46:46;97357.91;;;27.87;45.33
53900;BME280;40509;32.858;-116.858;2023-08-20T04:49:14;97356.09;;;27.88;45.65
53900;BME280;40509;32.858;-116.858;2023-08-20T04:51:41;97352.38;;;27.89;45.20
53900;BME280;40509;32.858;-116.858;2023-08-20T04:54:08;97361.56;;;27.93;45.19
53900;BME280;40509;32.858;-116.858;2023-08-20T04:56:35;97352.81;;;27.92;45.11
53900;BME280;40509;32.858;-116.858;2023-08-20T04:59:03;97351.16;;;27.85;45.24
53900;BME280;40509;32.858;-116.858;2023-08-20T05:02:08;97352.59;;;27.81;45.35
53900;BME280;40509;32.858;-116.858;2023-08-20T05:04:44;97354.88;;;27.90;45.32
53900;BME280;40509;32.858;-116.858;2023-08-20T05:07:11;97349.94;;;27.87;45.44
53900;BME280;40509;32.858;-116.858;2023-08-20T05:09:38;97341.78;;;27.96;45.11
53900;BME280;40509;32.858;-116.858;2023-08-20T05:12:07;97340.56;;;27.91;45.25
53900;BME280;40509;32.858;-116.858;2023-08-20T05:14:34;97335.25;;;27.91;45.46
53900;BME280;40509;32.858;-116.858;2023-08-20T05:17:02;97334.22;;;27.92;45.14
53900;BME280;40509;32.858;-116.858;2023-08-20T05:19:29;97335.66;;;27.88;45.56
53900;BME280;40509;32.858;-116.858;2023-08-20T05:21:55;97330.78;;;27.85;45.80
53900;BME280;40509;32.858;-116.858;2023-08-20T05:24:25;97329.56;;;27.95;45.28
53900;BME280;40509;32.858;-116.858;2023-08-20T05:29:31;97321.97;;;27.91;45.25
53900;BME280;40509;32.858;-116.858;2023-08-20T05:31:58;97322.19;;;27.90;45.31
53900;BME280;40509;32.858;-116.858;2023-08-20T05:34:31;97316.91;;;27.83;45.54
53900;BME280;40509;32.858;-116.858;2023-08-20T05:36:59;97310.78;;;27.89;45.19
53900;BME280;40509;32.858;-116.858;2023-08-20T05:39:29;97321.78;;;27.93;45.56
53900;BME280;40509;32.858;-116.858;2023-08-20T05:42:00;97317.72;;;27.90;45.09
53900;BME280;40509;32.858;-116.858;2023-08-20T05:44:28;97312.03;;;27.80;45.33
53900;BME280;40509;32.858;-116.858;2023-08-20T05:46:58;97312.22;;;27.79;45.44
53900;BME280;40509;32.858;-116.858;2023-08-20T05:49:25;97310.34;;;27.92;45.23
53900;BME280;40509;32.858;-116.858;2023-08-20T05:51:53;97309.97;;;27.82;45.47
53900;BME280;40509;32.858;-116.858;2023-08-20T05:54:20;97311.00;;;27.81;45.39
53900;BME280;40509;32.858;-116.858;2023-08-20T05:56:48;97311.00;;;27.81;45.35
53900;BME280;40509;32.858;-116.858;2023-08-20T05:59:16;97306.28;;;27.90;45.11
53900;BME280;40509;32.858;-116.858;2023-08-20T06:01:43;97307.50;;;27.94;45.07
53900;BME280;40509;32.858;-116.858;2023-08-20T06:04:10;97306.28;;;27.90;45.08
53900;BME280;40509;32.858;-116.858;2023-08-20T06:06:37;97304.06;;;27.80;45.27
53900;BME280;40509;32.858;-116.858;2023-08-20T06:09:04;97303.44;;;27.78;45.40
53900;BME280;40509;32.858;-116.858;2023-08-20T06:11:31;97305.25;;;27.91;45.15
53900;BME280;40509;32.858;-116.858;2023-08-20T06:13:58;97298.13;;;27.78;45.63
53900;BME280;40509;32.858;-116.858;2023-08-20T06:16:25;97297.94;;;27.86;45.46
53900;BME280;40509;32.858;-116.858;2023-08-20T06:18:52;97309.94;;;27.89;45.21
53900;BME280;40509;32.858;-116.858;2023-08-20T06:21:19;97307.50;;;27.87;45.32
53900;BME280;40509;32.858;-116.858;2023-08-20T06:23:46;97306.69;;;27.87;45.57
53900;BME280;40509;32.858;-116.858;2023-08-20T06:26:12;97307.50;;;27.87;45.09
53900;BME280;40509;32.858;-116.858;2023-08-20T06:28:39;97300.41;;;27.81;45.33
53900;BME280;40509;32.858;-116.858;2023-08-20T06:31:06;97299.78;;;27.79;45.40
53900;BME280;40509;32.858;-116.858;2023-08-20T06:33:33;97294.03;;;27.82;45.23
53900;BME280;40509;32.858;-116.858;2023-08-20T06:36:00;97294.25;;;27.87;45.39
53900;BME280;40509;32.858;-116.858;2023-08-20T06:38:27;97305.28;;;27.84;45.16
53900;BME280;40509;32.858;-116.858;2023-08-20T06:40:54;97298.53;;;27.82;45.22
53900;BME280;40509;32.858;-116.858;2023-08-20T06:43:20;97297.53;;;27.76;45.63
53900;BME280;40509;32.858;-116.858;2023-08-20T06:45:47;97310.78;;;27.83;45.64
53900;BME280;40509;32.858;-116.858;2023-08-20T06:48:14;97309.56;;;27.85;45.35
53900;BME280;40509;32.858;-116.858;2023-08-20T06:50:42;97303.03;;;27.88;45.04
53900;BME280;40509;32.858;-116.858;2023-08-20T06:53:09;97291.00;;;27.85;45.12
53900;BME280;40509;32.858;-116.858;2023-08-20T06:55:36;97296.31;;;27.79;45.55
53900;BME280;40509;32.858;-116.858;2023-08-20T06:58:03;97300.00;;;27.64;45.64
53900;BME280;40509;32.858;-116.858;2023-08-20T07:00:30;97292.69;;;27.59;45.57
53900;BME280;40509;32.858;-116.858;2023-08-20T07:02:57;97289.19;;;27.66;45.87
53900;BME280;40509;32.858;-116.858;2023-08-20T07:05:24;97289.81;;;27.61;45.72
53900;BME280;40509;32.858;-116.858;2023-08-20T07:07:50;97277.56;;;27.67;45.64
53900;BME280;40509;32.858;-116.858;2023-08-20T07:10:17;97272.25;;;27.67;45.56
53900;BME280;40509;32.858;-116.858;2023-08-20T07:12:44;97261.06;;;27.58;46.18
53900;BME280;40509;32.858;-116.858;2023-08-20T07:15:11;97251.28;;;27.58;45.73
53900;BME280;40509;32.858;-116.858;2023-08-20T07:17:38;97247.00;;;27.51;46.32
53900;BME280;40509;32.858;-116.858;2023-08-20T07:20:05;97241.28;;;27.61;45.92
53900;BME280;40509;32.858;-116.858;2023-08-20T07:22:32;97245.75;;;27.60;45.61
53900;BME280;40509;32.858;-116.858;2023-08-20T07:24:59;97243.31;;;27.58;46.11
53900;BME280;40509;32.858;-116.858;2023-08-20T07:27:26;97244.53;;;27.56;46.09
53900;BME280;40509;32.858;-116.858;2023-08-20T07:29:53;97244.53;;;27.56;45.71
53900;BME280;40509;32.858;-116.858;2023-08-20T07:32:20;97239.47;;;27.54;45.74
53900;BME280;40509;32.858;-116.858;2023-08-20T07:34:47;97247.59;;;27.59;45.61
53900;BME280;40509;32.858;-116.858;2023-08-20T07:37:14;97244.53;;;27.56;45.63
53900;BME280;40509;32.858;-116.858;2023-08-20T07:39:44;97241.09;;;27.55;46.04
53900;BME280;40509;32.858;-116.858;2023-08-20T07:42:11;97234.38;;;27.53;45.76
53900;BME280;40509;32.858;-116.858;2023-08-20T07:44:38;97241.47;;;27.52;45.76
53900;BME280;40509;32.858;-116.858;2023-08-20T07:47:05;97236.19;;;27.52;45.67
53900;BME280;40509;32.858;-116.858;2023-08-20T07:49:32;97238.84;;;27.52;45.66
53900;BME280;40509;32.858;-116.858;2023-08-20T07:51:59;97236.19;;;27.52;45.72
53900;BME280;40509;32.858;-116.858;2023-08-20T07:54:26;97238.84;;;27.52;46.17
53900;BME280;40509;32.858;-116.858;2023-08-20T07:56:54;97234.56;;;27.51;45.95
53900;BME280;40509;32.858;-116.858;2023-08-20T07:59:21;97239.88;;;27.51;45.58
53900;BME280;40509;32.858;-116.858;2023-08-20T08:01:48;97238.25;;;27.50;45.75
53900;BME280;40509;32.858;-116.858;2023-08-20T08:04:15;97240.09;;;27.50;46.15
53900;BME280;40509;32.858;-116.858;2023-08-20T08:06:41;97235.78;;;27.55;45.97
53900;BME280;40509;32.858;-116.858;2023-08-20T08:09:18;97231.72;;;27.53;46.00
53900;BME280;40509;32.858;-116.858;2023-08-20T08:11:46;97230.06;;;27.52;45.98
53900;BME280;40509;32.858;-116.858;2023-08-20T08:14:13;97227.63;;;27.50;46.05
53900;BME280;40509;32.858;-116.858;2023-08-20T08:16:40;97224.19;;;27.50;45.88
53900;BME280;40509;32.858;-116.858;2023-08-20T08:19:07;97216.25;;;27.43;46.21
53900;BME280;40509;32.858;-116.858;2023-08-20T08:21:34;97213.16;;;27.46;45.83
53900;BME280;40509;32.858;-116.858;2023-08-20T08:24:01;97215.81;;;27.46;46.13
53900;BME280;40509;32.858;-116.858;2023-08-20T08:26:28;97218.47;;;27.46;46.12
53900;BME280;40509;32.858;-116.858;2023-08-20T08:28:55;97208.47;;;27.48;46.05
53900;BME280;40509;32.858;-116.858;2023-08-20T08:31:22;97213.16;;;27.46;46.12
53900;BME280;40509;32.858;-116.858;2023-08-20T08:33:50;97210.53;;;27.46;46.15
53900;BME280;40509;32.858;-116.858;2023-08-20T08:36:16;97206.66;;;27.42;46.04
53900;BME280;40509;32.858;-116.858;2023-08-20T08:38:44;97215.81;;;27.46;45.77
53900;BME280;40509;32.858;-116.858;2023-08-20T08:41:11;97203.59;;;27.45;45.64
53900;BME280;40509;32.858;-116.858;2023-08-20T08:43:39;97202.78;;;27.45;46.20
53900;BME280;40509;32.858;-116.858;2023-08-20T08:46:06;97191.56;;;27.42;46.14
53900;BME280;40509;32.858;-116.858;2023-08-20T08:48:34;97182.59;;;27.43;45.68
53900;BME280;40509;32.858;-116.858;2023-08-20T08:51:04;97183.59;;;27.42;45.65
53900;BME280;40509;32.858;-116.858;2023-08-20T08:53:31;97184.84;;;27.40;46.14
53900;BME280;40509;32.858;-116.858;2023-08-20T08:55:59;97185.66;;;27.40;46.12
53900;BME280;40509;32.858;-116.858;2023-08-20T08:58:26;97177.50;;;27.42;45.90
53900;BME280;40509;32.858;-116.858;2023-08-20T09:00:53;97179.16;;;27.36;45.82
53900;BME280;40509;32.858;-116.858;2023-08-20T09:03:20;97170.16;;;27.37;46.18
53900;BME280;40509;32.858;-116.858;2023-08-20T09:05:48;97170.16;;;27.37;46.16
53900;BME280;40509;32.858;-116.858;2023-08-20T09:08:28;97165.91;;;27.36;46.18
53900;BME280;40509;32.858;-116.858;2023-08-20T09:10:55;97171.38;;;27.35;46.32
53900;BME280;40509;32.858;-116.858;2023-08-20T09:13:23;97177.72;;;27.40;46.10
53900;BME280;40509;32.858;-116.858;2023-08-20T09:15:54;97177.47;;;27.35;46.18
53900;BME280;40509;32.858;-116.858;2023-08-20T09:18:20;97176.50;;;27.36;46.07
53900;BME280;40509;32.858;-116.858;2023-08-20T09:20:48;97166.88;;;27.35;46.02
53900;BME280;40509;32.858;-116.858;2023-08-20T09:23:16;97167.09;;;27.34;45.96
53900;BME280;40509;32.858;-116.858;2023-08-20T09:25:45;97175.03;;;27.34;45.79
53900;BME280;40509;32.858;-116.858;2023-08-20T09:28:13;97166.47;;;27.32;45.83
53900;BME280;40509;32.858;-116.858;2023-08-20T09:30:40;97157.94;;;27.36;45.74
53900;BME280;40509;32.858;-116.858;2023-08-20T09:33:20;97154.66;;;27.34;46.11
53900;BME280;40509;32.858;-116.858;2023-08-20T09:35:51;97156.72;;;27.32;46.12
53900;BME280;40509;32.858;-116.858;2023-08-20T09:38:20;97153.84;;;27.34;46.15
53900;BME280;40509;32.858;-116.858;2023-08-20T09:40:48;97137.31;;;27.32;46.23
53900;BME280;40509;32.858;-116.858;2023-08-20T09:43:18;97122.06;;;27.27;45.91
53900;BME280;40509;32.858;-116.858;2023-08-20T09:45:46;97121.22;;;27.26;45.87
53900;BME280;40509;32.858;-116.858;2023-08-20T09:48:17;97109.19;;;27.31;46.18
53900;BME280;40509;32.858;-116.858;2023-08-20T09:50:46;97105.94;;;27.29;45.91
53900;BME280;40509;32.858;-116.858;2023-08-20T09:53:35;97116.13;;;27.32;46.19
53900;BME280;40509;32.858;-116.858;2023-08-20T09:56:43;97109.41;;;27.29;46.17
53900;BME280;40509;32.858;-116.858;2023-08-20T09:58:50;97110.44;;;27.28;45.85
53900;BME280;40509;32.858;-116.858;2023-08-20T10:01:17;97112.47;;;27.26;46.30
53900;BME280;40509;32.858;-116.858;2023-08-20T10:03:44;97113.91;;;27.29;46.27
53900;BME280;40509;32.858;-116.858;2023-08-20T10:06:12;97114.31;;;27.25;45.79
53900;BME280;40509;32.858;-116.858;2023-08-20T10:08:38;97101.28;;;27.24;46.25
53900;BME280;40509;32.858;-116.858;2023-08-20T10:11:05;97099.44;;;27.24;45.83
53900;BME280;40509;32.858;-116.858;2023-08-20T10:13:32;97087.22;;;27.23;46.37
53900;BME280;40509;32.858;-116.858;2023-08-20T10:15:59;97082.75;;;27.24;46.24
53900;BME280;40509;32.858;-116.858;2023-08-20T10:18:26;97084.13;;;27.26;45.80
53900;BME280;40509;32.858;-116.858;2023-08-20T10:20:53;97076.59;;;27.23;46.26
53900;BME280;40509;32.858;-116.858;2023-08-20T10:23:22;97072.94;;;27.24;45.82
53900;BME280;40509;32.858;-116.858;2023-08-20T10:25:51;97061.72;;;27.22;46.14
53900;BME280;40509;32.858;-116.858;2023-08-20T10:28:20;97065.78;;;27.25;46.25
53900;BME280;40509;32.858;-116.858;2023-08-20T10:31:06;97068.28;;;27.20;45.92
53900;BME280;40509;32.858;-116.858;2023-08-20T10:36:20;97033.00;;;27.19;45.85
53900;BME280;40509;32.858;-116.858;2023-08-20T10:38:49;97029.34;;;27.20;45.82
53900;BME280;40509;32.858;-116.858;2023-08-20T10:41:16;97029.78;;;27.17;45.98
53900;BME280;40509;32.858;-116.858;2023-08-20T10:43:50;97038.53;;;27.18;45.84
53900;BME280;40509;32.858;-116.858;2023-08-20T10:46:20;97039.31;;;27.18;46.00
53900;BME280;40509;32.858;-116.858;2023-08-20T10:48:48;97038.09;;;27.21;46.32
53900;BME280;40509;32.858;-116.858;2023-08-20T10:51:16;97041.97;;;27.18;45.82
53900;BME280;40509;32.858;-116.858;2023-08-20T10:56:40;97027.50;;;27.14;46.36
53900;BME280;40509;32.858;-116.858;2023-08-20T10:59:28;97018.56;;;27.15;46.29
53900;BME280;40509;32.858;-116.858;2023-08-20T11:01:55;97011.03;;;27.12;46.01
53900;BME280;40509;32.858;-116.858;2023-08-20T11:04:23;96999.44;;;27.13;46.13
53900;BME280;40509;32.858;-116.858;2023-08-20T11:06:54;97005.09;;;27.17;46.15
53900;BME280;40509;32.858;-116.858;2023-08-20T11:09:22;96983.53;;;27.13;45.87
53900;BME280;40509;32.858;-116.858;2023-08-20T11:11:49;96976.38;;;27.14;46.17
53900;BME280;40509;32.858;-116.858;2023-08-20T11:14:17;96960.69;;;27.12;46.30
53900;BME280;40509;32.858;-116.858;2023-08-20T11:16:45;96959.88;;;27.12;45.86
53900;BME280;40509;32.858;-116.858;2023-08-20T11:19:13;96951.91;;;27.12;45.95
53900;BME280;40509;32.858;-116.858;2023-08-20T11:21:43;96929.50;;;27.14;46.31
53900;BME280;40509;32.858;-116.858;2023-08-20T11:24:10;96927.91;;;27.13;46.25
53900;BME280;40509;32.858;-116.858;2023-08-20T11:26:38;96921.97;;;27.11;46.30
53900;BME280;40509;32.858;-116.858;2023-08-20T11:29:06;96910.19;;;27.07;46.46
53900;BME280;40509;32.858;-116.858;2023-08-20T11:31:33;96901.00;;;27.09;46.33
53900;BME280;40509;32.858;-116.858;2023-08-20T11:34:01;96883.69;;;27.07;46.39
53900;BME280;40509;32.858;-116.858;2023-08-20T11:36:31;96914.47;;;27.08;45.98
53900;BME280;40509;32.858;-116.858;2023-08-20T11:38:58;96936.47;;;27.08;45.90
53900;BME280;40509;32.858;-116.858;2023-08-20T11:41:25;96945.25;;;27.09;45.96
53900;BME280;40509;32.858;-116.858;2023-08-20T11:43:53;96955.44;;;27.05;45.92
53900;BME280;40509;32.858;-116.858;2023-08-20T11:46:21;96954.19;;;27.08;46.06
53900;BME280;40509;32.858;-116.858;2023-08-20T11:49:07;96954.63;;;27.05;46.02
53900;BME280;40509;32.858;-116.858;2023-08-20T11:51:44;96946.69;;;27.05;46.08
53900;BME280;40509;32.858;-116.858;2023-08-20T11:54:14;96941.97;;;27.07;46.19
53900;BME280;40509;32.858;-116.858;2023-08-20T11:56:45;96937.09;;;27.04;46.28
53900;BME280;40509;32.858;-116.858;2023-08-20T11:59:13;96926.50;;;27.04;46.05
53900;BME280;40509;32.858;-116.858;2023-08-20T12:01:40;96936.09;;;27.05;46.11
53900;BME280;40509;32.858;-116.858;2023-08-20T12:04:08;96941.16;;;27.06;46.10
53900;BME280;40509;32.858;-116.858;2023-08-20T12:06:35;96927.13;;;26.99;46.20
53900;BME280;40509;32.858;-116.858;2023-08-20T12:09:18;96929.16;;;27.04;46.00
53900;BME280;40509;32.858;-116.858;2023-08-20T12:11:51;96911.41;;;27.04;46.31
53900;BME280;40509;32.858;-116.858;2023-08-20T12:14:18;96911.41;;;27.04;45.97
53900;BME280;40509;32.858;-116.858;2023-08-20T12:16:45;96904.69;;;27.02;46.01
53900;BME280;40509;32.858;-116.858;2023-08-20T12:19:15;96894.31;;;27.00;46.28
53900;BME280;40509;32.858;-116.858;2023-08-20T12:21:42;96892.28;;;27.02;45.93
53900;BME280;40509;32.858;-116.858;2023-08-20T12:24:10;96887.19;;;27.01;46.38
53900;BME280;40509;32.858;-116.858;2023-08-20T12:26:37;96901.25;;;27.01;46.32
53900;BME280;40509;32.858;-116.858;2023-08-20T12:29:05;96901.66;;;27.05;46.03
53900;BME280;40509;32.858;-116.858;2023-08-20T12:31:32;96896.75;;;27.02;46.18
53900;BME280;40509;32.858;-116.858;2023-08-20T12:33:59;96892.69;;;26.99;46.13
53900;BME280;40509;32.858;-116.858;2023-08-20T12:36:26;96888.63;;;26.97;46.47
53900;BME280;40509;32.858;-116.858;2023-08-20T12:38:54;96874.59;;;26.96;46.28
53900;BME280;40509;32.858;-116.858;2023-08-20T12:41:21;96864.78;;;26.97;46.14
53900;BME280;40509;32.858;-116.858;2023-08-20T12:43:48;96863.19;;;26.96;46.54
53900;BME280;40509;32.858;-116.858;2023-08-20T12:46:16;96865.41;;;26.99;46.53
53900;BME280;40509;32.858;-116.858;2023-08-20T12:48:43;96864.59;;;26.98;45.99
53900;BME280;40509;32.858;-116.858;2023-08-20T12:51:09;96863.78;;;26.98;46.58